To NAV CANADA Home Page Login to a new session Search on AWWS site Disclaimer Vers la page française équivalente Tips FAQ What's new on the site To the Forecasts and Observations / NOTAM section To "File a Flight Plan" website Publications and other links Update of the User's profile FIC Telephone Numbers My Weather Data Folder Route Weather Data Regional Weather Data Local Weather Data To the Forecasts and Observations / NOTAM section
Request Generated 01/26/2021 at 21:12:26 UTC . Weather information available at that time is displayed.

METAR/TAF

TRENTON/ON    

METAR CYTR 262100Z 07010G15KT 2 1/2SM -SN OVC012 M02/M05 A2979 RMK SF8 VIS VRB 1 3/4-4 /S04/ SLP094=
SPECI CYTR 262044Z 07009G16KT 2 1/2SM -SN OVC012 M02/M05 A2979 RMK SN7SF1 VIS VRB 1 3/4-4 SLP093=
SPECI CYTR 262028Z 07011G17KT 5SM -SN BKN009 OVC056 M03/M05 A2978 RMK SF7SC1 CIG VRB 6-12 SLP091=
SPECI CYTR 262012Z 07010G18KT 7SM -SN OVC009 M02/M05 A2979 RMK SF8 CIG VRB 6-12 SLP095=
METAR CYTR 262000Z 08009G19KT 4SM -SN BKN008 OVC042 M02/M05 A2979 RMK SF6SC2 CIG VRB 6-10 /S03/ SLP095=
SPECI CYTR 261941Z 07012KT 2 1/2SM -SN BKN008 OVC048 M02/M04 A2980 RMK SF6SC2 VIS VRB 1 3/4-4 CIG VRB 6-10 SLP098=
SPECI CYTR 261922Z 07012G18KT 1 1/2SM -SN OVC010 M03/M04 A2981 RMK SF8 VIS VRB 1-2 SLP100=
METAR CYTR 261900Z 07013G18KT 1SM -SN OVC003 M03/M04 A2981 RMK SN7SF1 VIS VRB 3/4-1 1/4 CIG VRB 2-4 /S02/ SLP102=

TAF AMD CYTR 262027Z 2620/2718 07010G20KT 2SM -SN OVC008 TEMPO
2620/2703 P6SM -SN OVC015 PROB30 2620/2701 1/2SM SHSN VV005
FM270300 03012KT P6SM OVC015 TEMPO 2703/2706 6SM -SN
BECMG 2708/2710 34008KT BKN020 OVC080
FM271300 34008KT P6SM FEW020 SCT080
RMK FCST BASED ON AUTO OBS 270300-271100Z. NXT FCST BY 270000Z=
Your time UTC time
Weather data provided by Environment Canada and NAV CANADA